sensor_id;sensor_type;location;lat;lon;timestamp;temperature;humidity
25554;DHT22;13446;50.926;5.332;2023-01-20T00:00:22;3.10;99.90
25554;DHT22;13446;50.926;5.332;2023-01-20T00:02:48;3.10;99.90
25554;DHT22;13446;50.926;5.332;2023-01-20T00:05:13;3.20;99.90
25554;DHT22;13446;50.926;5.332;2023-01-20T00:07:39;3.20;99.90
25554;DHT22;13446;50.926;5.332;2023-01-20T00:10:05;3.20;99.90
25554;DHT22;13446;50.926;5.332;2023-01-20T00:12:31;3.20;99.90
25554;DHT22;13446;50.926;5.332;2023-01-20T00:14:58;3.30;99.90
25554;DHT22;13446;50.926;5.332;2023-01-20T00:17:23;3.30;99.90
25554;DHT22;13446;50.926;5.332;2023-01-20T00:19:49;3.30;99.90
25554;DHT22;13446;50.926;5.332;2023-01-20T00:22:14;3.30;99.90
25554;DHT22;13446;50.926;5.332;2023-01-20T00:24:40;3.40;99.90
25554;DHT22;13446;50.926;5.332;2023-01-20T00:27:05;3.40;99.90
25554;DHT22;13446;50.926;5.332;2023-01-20T00:29:31;3.40;99.90
25554;DHT22;13446;50.926;5.332;2023-01-20T00:31:57;3.40;99.90
25554;DHT22;13446;50.926;5.332;2023-01-20T00:34:23;3.50;99.90
25554;DHT22;13446;50.926;5.332;2023-01-20T00:36:48;3.30;99.90
25554;DHT22;13446;50.926;5.332;2023-01-20T00:39:15;3.20;99.90
25554;DHT22;13446;50.926;5.332;2023-01-20T00:41:40;3.30;99.90
25554;DHT22;13446;50.926;5.332;2023-01-20T00:44:06;3.30;99.90
25554;DHT22;13446;50.926;5.332;2023-01-20T00:46:31;3.40;99.90
25554;DHT22;13446;50.926;5.332;2023-01-20T00:48:57;3.40;99.90
25554;DHT22;13446;50.926;5.332;2023-01-20T00:51:23;3.50;99.90
25554;DHT22;13446;50.926;5.332;2023-01-20T00:53:48;3.40;99.90
25554;DHT22;13446;50.926;5.332;2023-01-20T00:56:14;3.40;99.90
25554;DHT22;13446;50.926;5.332;2023-01-20T00:58:41;3.20;99.90
25554;DHT22;13446;50.926;5.332;2023-01-20T01:01:06;3.20;99.90
25554;DHT22;13446;50.926;5.332;2023-01-20T01:03:32;3.30;99.90
25554;DHT22;13446;50.926;5.332;2023-01-20T01:06:08;3.30;99.90
25554;DHT22;13446;50.926;5.332;2023-01-20T01:08:34;3.30;99.90
25554;DHT22;13446;50.926;5.332;2023-01-20T01:11:00;3.20;99.90
25554;DHT22;13446;50.926;5.332;2023-01-20T01:13:26;3.20;99.90
25554;DHT22;13446;50.926;5.332;2023-01-20T01:15:52;3.20;99.90
25554;DHT22;13446;50.926;5.332;2023-01-20T01:18:17;3.30;99.90
25554;DHT22;13446;50.926;5.332;2023-01-20T01:20:43;3.40;99.90
25554;DHT22;13446;50.926;5.332;2023-01-20T01:23:09;3.40;99.90
25554;DHT22;13446;50.926;5.332;2023-01-20T01:25:39;3.30;99.90
25554;DHT22;13446;50.926;5.332;2023-01-20T01:28:05;3.30;99.90
25554;DHT22;13446;50.926;5.332;2023-01-20T01:30:30;3.40;99.90
25554;DHT22;13446;50.926;5.332;2023-01-20T01:33:12;3.30;99.90
25554;DHT22;13446;50.926;5.332;2023-01-20T01:35:38;3.30;99.90
25554;DHT22;13446;50.926;5.332;2023-01-20T01:38:03;3.50;99.90
25554;DHT22;13446;50.926;5.332;2023-01-20T01:40:29;3.60;99.90
25554;DHT22;13446;50.926;5.332;2023-01-20T01:42:54;3.70;99.90
25554;DHT22;13446;50.926;5.332;2023-01-20T01:45:21;3.50;99.90
25554;DHT22;13446;50.926;5.332;2023-01-20T01:47:54;3.60;99.90
25554;DHT22;13446;50.926;5.332;2023-01-20T01:50:26;3.60;99.90
25554;DHT22;13446;50.926;5.332;2023-01-20T01:52:53;3.50;99.90
25554;DHT22;13446;50.926;5.332;2023-01-20T01:55:20;3.60;99.90
25554;DHT22;13446;50.926;5.332;2023-01-20T01:57:46;3.50;99.90
25554;DHT22;13446;50.926;5.332;2023-01-20T02:00:12;3.60;99.90
25554;DHT22;13446;50.926;5.332;2023-01-20T02:02:38;3.60;99.90
25554;DHT22;13446;50.926;5.332;2023-01-20T02:05:05;3.70;99.90
25554;DHT22;13446;50.926;5.332;2023-01-20T02:07:31;3.70;99.90
25554;DHT22;13446;50.926;5.332;2023-01-20T02:09:59;3.70;99.90
25554;DHT22;13446;50.926;5.332;2023-01-20T02:12:25;3.60;99.90
25554;DHT22;13446;50.926;5.332;2023-01-20T02:14:51;3.60;99.90
25554;DHT22;13446;50.926;5.332;2023-01-20T02:22:24;3.60;99.90
25554;DHT22;13446;50.926;5.332;2023-01-20T02:25:04;3.60;99.90
25554;DHT22;13446;50.926;5.332;2023-01-20T02:27:50;3.70;99.90
25554;DHT22;13446;50.926;5.332;2023-01-20T02:36:14;4.00;99.90
25554;DHT22;13446;50.926;5.332;2023-01-20T02:43:39;3.90;99.90
25554;DHT22;13446;50.926;5.332;2023-01-20T02:46:10;3.80;99.90
25554;DHT22;13446;50.926;5.332;2023-01-20T02:48:47;3.80;99.90
25554;DHT22;13446;50.926;5.332;2023-01-20T02:51:17;3.90;99.90
25554;DHT22;13446;50.926;5.332;2023-01-20T02:53:46;3.90;99.90
25554;DHT22;13446;50.926;5.332;2023-01-20T02:56:12;3.80;99.90
25554;DHT22;13446;50.926;5.332;2023-01-20T02:58:41;3.80;99.90
25554;DHT22;13446;50.926;5.332;2023-01-20T03:01:09;3.90;99.90
25554;DHT22;13446;50.926;5.332;2023-01-20T03:03:37;3.90;99.90
25554;DHT22;13446;50.926;5.332;2023-01-20T03:06:07;4.00;99.90
25554;DHT22;13446;50.926;5.332;2023-01-20T03:08:33;4.00;99.90
25554;DHT22;13446;50.926;5.332;2023-01-20T03:11:01;3.90;99.90
25554;DHT22;13446;50.926;5.332;2023-01-20T03:13:35;3.70;99.90
25554;DHT22;13446;50.926;5.332;2023-01-20T03:16:24;3.70;99.90
25554;DHT22;13446;50.926;5.332;2023-01-20T03:18:48;3.60;99.90
25554;DHT22;13446;50.926;5.332;2023-01-20T03:21:15;3.70;99.90
25554;DHT22;13446;50.926;5.332;2023-01-20T03:23:44;3.70;99.90
25554;DHT22;13446;50.926;5.332;2023-01-20T03:26:11;3.70;99.90
25554;DHT22;13446;50.926;5.332;2023-01-20T03:28:36;3.60;99.90
25554;DHT22;13446;50.926;5.332;2023-01-20T03:31:09;3.70;99.90
25554;DHT22;13446;50.926;5.332;2023-01-20T03:33:37;3.80;99.90
25554;DHT22;13446;50.926;5.332;2023-01-20T03:36:03;3.70;99.90
25554;DHT22;13446;50.926;5.332;2023-01-20T03:38:28;3.70;99.90
25554;DHT22;13446;50.926;5.332;2023-01-20T03:41:14;3.70;99.90
25554;DHT22;13446;50.926;5.332;2023-01-20T03:43:48;3.80;99.90
25554;DHT22;13446;50.926;5.332;2023-01-20T03:49:27;3.80;99.90
25554;DHT22;13446;50.926;5.332;2023-01-20T03:57:28;3.70;99.90
25554;DHT22;13446;50.926;5.332;2023-01-20T03:59:56;3.80;99.90
25554;DHT22;13446;50.926;5.332;2023-01-20T04:02:22;3.60;99.90
25554;DHT22;13446;50.926;5.332;2023-01-20T04:04:50;3.80;99.90
25554;DHT22;13446;50.926;5.332;2023-01-20T04:07:18;3.90;99.90
25554;DHT22;13446;50.926;5.332;2023-01-20T04:09:46;3.90;99.90
25554;DHT22;13446;50.926;5.332;2023-01-20T04:12:13;3.90;99.90
25554;DHT22;13446;50.926;5.332;2023-01-20T04:14:38;3.80;99.90
25554;DHT22;13446;50.926;5.332;2023-01-20T04:17:04;3.70;99.90
25554;DHT22;13446;50.926;5.332;2023-01-20T04:19:31;3.80;99.90
25554;DHT22;13446;50.926;5.332;2023-01-20T04:21:59;3.80;99.90
25554;DHT22;13446;50.926;5.332;2023-01-20T04:27:07;3.60;99.90
25554;DHT22;13446;50.926;5.332;2023-01-20T04:29:33;3.60;99.90
25554;DHT22;13446;50.926;5.332;2023-01-20T04:32:02;3.50;99.90
25554;DHT22;13446;50.926;5.332;2023-01-20T04:34:28;3.60;99.90
25554;DHT22;13446;50.926;5.332;2023-01-20T04:36:53;3.70;99.90
25554;DHT22;13446;50.926;5.332;2023-01-20T04:39:19;3.60;99.90
25554;DHT22;13446;50.926;5.332;2023-01-20T04:41:47;3.60;99.90
25554;DHT22;13446;50.926;5.332;2023-01-20T04:44:12;3.40;99.90
25554;DHT22;13446;50.926;5.332;2023-01-20T04:46:38;3.60;99.90
25554;DHT22;13446;50.926;5.332;2023-01-20T04:49:03;3.50;99.90
25554;DHT22;13446;50.926;5.332;2023-01-20T04:51:30;3.60;99.90
25554;DHT22;13446;50.926;5.332;2023-01-20T04:53:56;3.60;99.90
25554;DHT22;13446;50.926;5.332;2023-01-20T04:56:22;3.60;99.90
25554;DHT22;13446;50.926;5.332;2023-01-20T04:58:48;3.50;99.90
25554;DHT22;13446;50.926;5.332;2023-01-20T05:01:14;3.60;99.90
25554;DHT22;13446;50.926;5.332;2023-01-20T05:03:39;3.50;99.90
25554;DHT22;13446;50.926;5.332;2023-01-20T05:06:05;3.50;99.90
25554;DHT22;13446;50.926;5.332;2023-01-20T05:08:31;3.60;99.90
25554;DHT22;13446;50.926;5.332;2023-01-20T05:10:56;3.70;99.90
25554;DHT22;13446;50.926;5.332;2023-01-20T05:13:22;3.60;99.90
25554;DHT22;13446;50.926;5.332;2023-01-20T05:15:47;3.50;99.90
25554;DHT22;13446;50.926;5.332;2023-01-20T05:18:13;3.50;99.90
25554;DHT22;13446;50.926;5.332;2023-01-20T05:20:39;3.50;99.90
25554;DHT22;13446;50.926;5.332;2023-01-20T05:23:04;3.50;99.90
25554;DHT22;13446;50.926;5.332;2023-01-20T05:25:30;3.50;99.90
25554;DHT22;13446;50.926;5.332;2023-01-20T05:27:57;3.40;99.90
25554;DHT22;13446;50.926;5.332;2023-01-20T05:30:22;3.30;99.90
25554;DHT22;13446;50.926;5.332;2023-01-20T05:32:48;3.30;99.90
25554;DHT22;13446;50.926;5.332;2023-01-20T05:35:14;3.30;99.90
25554;DHT22;13446;50.926;5.332;2023-01-20T05:37:41;3.30;99.90
25554;DHT22;13446;50.926;5.332;2023-01-20T05:40:07;3.30;99.90
25554;DHT22;13446;50.926;5.332;2023-01-20T05:42:33;3.20;99.90
25554;DHT22;13446;50.926;5.332;2023-01-20T05:44:58;3.30;99.90
25554;DHT22;13446;50.926;5.332;2023-01-20T05:47:24;3.20;99.90
25554;DHT22;13446;50.926;5.332;2023-01-20T05:49:49;3.30;99.90
25554;DHT22;13446;50.926;5.332;2023-01-20T05:52:15;3.30;99.90
25554;DHT22;13446;50.926;5.332;2023-01-20T05:54:41;3.30;99.90
25554;DHT22;13446;50.926;5.332;2023-01-20T05:57:06;3.30;99.90
25554;DHT22;13446;50.926;5.332;2023-01-20T05:59:32;3.30;99.90
25554;DHT22;13446;50.926;5.332;2023-01-20T06:01:57;3.30;99.90
25554;DHT22;13446;50.926;5.332;2023-01-20T06:04:24;3.40;99.90
25554;DHT22;13446;50.926;5.332;2023-01-20T06:06:49;3.50;99.90
25554;DHT22;13446;50.926;5.332;2023-01-20T06:09:15;3.40;99.90
25554;DHT22;13446;50.926;5.332;2023-01-20T06:11:40;3.40;99.90
25554;DHT22;13446;50.926;5.332;2023-01-20T06:14:06;3.30;99.90
25554;DHT22;13446;50.926;5.332;2023-01-20T06:16:33;3.10;99.90
25554;DHT22;13446;50.926;5.332;2023-01-20T06:19:00;3.10;99.90
25554;DHT22;13446;50.926;5.332;2023-01-20T06:21:25;3.10;99.90
25554;DHT22;13446;50.926;5.332;2023-01-20T06:23:51;3.20;99.90
25554;DHT22;13446;50.926;5.332;2023-01-20T06:26:18;3.30;99.90
25554;DHT22;13446;50.926;5.332;2023-01-20T06:28:44;3.30;99.90
25554;DHT22;13446;50.926;5.332;2023-01-20T06:31:11;3.20;99.90
25554;DHT22;13446;50.926;5.332;2023-01-20T06:33:37;3.10;99.90
25554;DHT22;13446;50.926;5.332;2023-01-20T06:36:05;3.00;99.90
25554;DHT22;13446;50.926;5.332;2023-01-20T06:38:31;3.10;99.90
25554;DHT22;13446;50.926;5.332;2023-01-20T06:40:58;3.00;99.90
25554;DHT22;13446;50.926;5.332;2023-01-20T06:43:24;2.90;99.90
25554;DHT22;13446;50.926;5.332;2023-01-20T06:45:49;2.90;99.90
25554;DHT22;13446;50.926;5.332;2023-01-20T06:48:15;2.90;99.90
25554;DHT22;13446;50.926;5.332;2023-01-20T06:50:42;3.00;99.90
25554;DHT22;13446;50.926;5.332;2023-01-20T06:53:07;3.00;99.90
25554;DHT22;13446;50.926;5.332;2023-01-20T06:55:33;3.10;99.90
25554;DHT22;13446;50.926;5.332;2023-01-20T06:57:58;3.20;99.90
25554;DHT22;13446;50.926;5.332;2023-01-20T07:00:24;3.10;99.90
25554;DHT22;13446;50.926;5.332;2023-01-20T07:02:50;3.10;99.90
25554;DHT22;13446;50.926;5.332;2023-01-20T07:05:15;3.20;99.90
25554;DHT22;13446;50.926;5.332;2023-01-20T07:07:44;3.10;99.90
25554;DHT22;13446;50.926;5.332;2023-01-20T07:10:10;3.20;99.90
25554;DHT22;13446;50.926;5.332;2023-01-20T07:12:35;3.20;99.90
25554;DHT22;13446;50.926;5.332;2023-01-20T07:15:01;3.20;99.90
25554;DHT22;13446;50.926;5.332;2023-01-20T07:17:27;3.20;99.90
25554;DHT22;13446;50.926;5.332;2023-01-20T07:19:52;3.20;99.90
25554;DHT22;13446;50.926;5.332;2023-01-20T07:22:18;3.30;99.90
25554;DHT22;13446;50.926;5.332;2023-01-20T07:24:43;3.20;99.90
25554;DHT22;13446;50.926;5.332;2023-01-20T07:27:09;3.20;99.90
25554;DHT22;13446;50.926;5.332;2023-01-20T07:29:34;3.20;99.90
25554;DHT22;13446;50.926;5.332;2023-01-20T07:32:00;3.10;99.90
25554;DHT22;13446;50.926;5.332;2023-01-20T07:34:26;3.20;99.90
25554;DHT22;13446;50.926;5.332;2023-01-20T07:36:51;3.20;99.90
25554;DHT22;13446;50.926;5.332;2023-01-20T07:39:19;3.10;99.90
25554;DHT22;13446;50.926;5.332;2023-01-20T07:41:45;3.00;99.90
25554;DHT22;13446;50.926;5.332;2023-01-20T07:44:13;3.10;99.90
25554;DHT22;13446;50.926;5.332;2023-01-20T07:46:42;3.00;99.90
25554;DHT22;13446;50.926;5.332;2023-01-20T07:49:07;3.00;99.90
25554;DHT22;13446;50.926;5.332;2023-01-20T07:51:33;2.80;99.90
25554;DHT22;13446;50.926;5.332;2023-01-20T07:53:59;2.80;99.90
25554;DHT22;13446;50.926;5.332;2023-01-20T07:56:25;2.80;99.90
25554;DHT22;13446;50.926;5.332;2023-01-20T07:58:52;2.90;99.90
25554;DHT22;13446;50.926;5.332;2023-01-20T08:01:21;2.90;99.90
25554;DHT22;13446;50.926;5.332;2023-01-20T08:03:47;2.90;99.90
25554;DHT22;13446;50.926;5.332;2023-01-20T08:06:13;2.90;99.90
25554;DHT22;13446;50.926;5.332;2023-01-20T08:08:40;2.80;99.90
25554;DHT22;13446;50.926;5.332;2023-01-20T08:11:05;2.80;99.90
25554;DHT22;13446;50.926;5.332;2023-01-20T08:13:31;2.90;99.90
25554;DHT22;13446;50.926;5.332;2023-01-20T08:16:00;2.90;99.90
25554;DHT22;13446;50.926;5.332;2023-01-20T08:18:27;2.80;99.90
25554;DHT22;13446;50.926;5.332;2023-01-20T08:20:52;2.80;99.90
25554;DHT22;13446;50.926;5.332;2023-01-20T08:23:18;2.90;99.90
25554;DHT22;13446;50.926;5.332;2023-01-20T08:25:43;2.90;99.90
25554;DHT22;13446;50.926;5.332;2023-01-20T08:28:09;2.80;99.90
25554;DHT22;13446;50.926;5.332;2023-01-20T08:30:34;2.70;99.90
25554;DHT22;13446;50.926;5.332;2023-01-20T08:33:00;2.70;99.90
25554;DHT22;13446;50.926;5.332;2023-01-20T08:35:26;2.70;99.90
25554;DHT22;13446;50.926;5.332;2023-01-20T08:37:51;2.60;99.90
25554;DHT22;13446;50.926;5.332;2023-01-20T08:40:17;2.60;99.90
25554;DHT22;13446;50.926;5.332;2023-01-20T08:42:42;2.60;99.90
25554;DHT22;13446;50.926;5.332;2023-01-20T08:45:08;2.60;99.90
25554;DHT22;13446;50.926;5.332;2023-01-20T08:47:38;2.60;99.90
25554;DHT22;13446;50.926;5.332;2023-01-20T08:50:04;2.50;99.90
25554;DHT22;13446;50.926;5.332;2023-01-20T08:52:30;2.50;99.90
25554;DHT22;13446;50.926;5.332;2023-01-20T08:54:56;2.50;99.90
25554;DHT22;13446;50.926;5.332;2023-01-20T08:57:26;2.50;99.90
25554;DHT22;13446;50.926;5.332;2023-01-20T08:59:52;2.50;99.90
25554;DHT22;13446;50.926;5.332;2023-01-20T09:02:18;2.40;99.90
25554;DHT22;13446;50.926;5.332;2023-01-20T09:04:43;2.30;99.90
25554;DHT22;13446;50.926;5.332;2023-01-20T09:07:10;2.40;99.90
25554;DHT22;13446;50.926;5.332;2023-01-20T09:09:37;2.40;99.90
25554;DHT22;13446;50.926;5.332;2023-01-20T09:12:03;2.30;99.90
25554;DHT22;13446;50.926;5.332;2023-01-20T09:14:28;2.30;99.90
25554;DHT22;13446;50.926;5.332;2023-01-20T09:16:54;2.20;99.90
25554;DHT22;13446;50.926;5.332;2023-01-20T09:19:20;2.30;99.90
25554;DHT22;13446;50.926;5.332;2023-01-20T09:21:45;2.50;99.90
25554;DHT22;13446;50.926;5.332;2023-01-20T09:24:11;2.40;99.90
25554;DHT22;13446;50.926;5.332;2023-01-20T09:26:36;2.40;99.90
25554;DHT22;13446;50.926;5.332;2023-01-20T09:29:06;2.40;99.90
25554;DHT22;13446;50.926;5.332;2023-01-20T09:31:38;2.50;99.90
25554;DHT22;13446;50.926;5.332;2023-01-20T09:34:04;2.60;99.90
25554;DHT22;13446;50.926;5.332;2023-01-20T09:36:30;2.60;99.90
25554;DHT22;13446;50.926;5.332;2023-01-20T09:38:56;2.60;99.90
25554;DHT22;13446;50.926;5.332;2023-01-20T09:41:45;2.60;99.90
25554;DHT22;13446;50.926;5.332;2023-01-20T09:44:35;2.80;99.90
25554;DHT22;13446;50.926;5.332;2023-01-20T09:52:35;2.60;99.90
25554;DHT22;13446;50.926;5.332;2023-01-20T09:58:00;2.60;99.90
25554;DHT22;13446;50.926;5.332;2023-01-20T10:00:30;2.60;99.90
25554;DHT22;13446;50.926;5.332;2023-01-20T10:03:32;2.50;99.90
25554;DHT22;13446;50.926;5.332;2023-01-20T10:05:51;2.50;99.90
25554;DHT22;13446;50.926;5.332;2023-01-20T10:08:20;2.60;99.90
25554;DHT22;13446;50.926;5.332;2023-01-20T10:13:26;2.70;99.90
25554;DHT22;13446;50.926;5.332;2023-01-20T10:15:54;2.60;99.90
25554;DHT22;13446;50.926;5.332;2023-01-20T10:18:33;2.60;99.90
25554;DHT22;13446;50.926;5.332;2023-01-20T10:23:47;2.40;99.90
25554;DHT22;13446;50.926;5.332;2023-01-20T10:26:16;2.50;99.90
25554;DHT22;13446;50.926;5.332;2023-01-20T10:28:45;2.50;99.90
25554;DHT22;13446;50.926;5.332;2023-01-20T10:31:13;2.60;99.90
25554;DHT22;13446;50.926;5.332;2023-01-20T10:33:44;2.70;99.90
25554;DHT22;13446;50.926;5.332;2023-01-20T10:36:29;2.70;99.90
25554;DHT22;13446;50.926;5.332;2023-01-20T10:39:00;2.80;99.90
25554;DHT22;13446;50.926;5.332;2023-01-20T10:41:31;2.90;99.90
25554;DHT22;13446;50.926;5.332;2023-01-20T10:43:59;3.00;99.90
25554;DHT22;13446;50.926;5.332;2023-01-20T10:49:19;2.80;99.90
25554;DHT22;13446;50.926;5.332;2023-01-20T10:54:40;2.70;99.90
25554;DHT22;13446;50.926;5.332;2023-01-20T10:57:09;2.70;99.90
25554;DHT22;13446;50.926;5.332;2023-01-20T10:59:40;2.80;99.90
25554;DHT22;13446;50.926;5.332;2023-01-20T11:02:14;2.80;99.90
25554;DHT22;13446;50.926;5.332;2023-01-20T11:04:40;2.90;99.90
25554;DHT22;13446;50.926;5.332;2023-01-20T11:07:14;3.00;99.90
25554;DHT22;13446;50.926;5.332;2023-01-20T11:09:40;3.10;99.90
25554;DHT22;13446;50.926;5.332;2023-01-20T11:12:17;3.10;99.90
25554;DHT22;13446;50.926;5.332;2023-01-20T11:14:44;3.20;99.90
25554;DHT22;13446;50.926;5.332;2023-01-20T11:17:15;3.30;99.90
25554;DHT22;13446;50.926;5.332;2023-01-20T11:22:17;3.20;99.90
25554;DHT22;13446;50.926;5.332;2023-01-20T11:24:46;3.30;99.90
25554;DHT22;13446;50.926;5.332;2023-01-20T11:27:16;3.50;99.90
25554;DHT22;13446;50.926;5.332;2023-01-20T11:29:50;3.40;99.90
25554;DHT22;13446;50.926;5.332;2023-01-20T11:34:48;3.30;99.90
25554;DHT22;13446;50.926;5.332;2023-01-20T11:37:15;3.40;99.90
25554;DHT22;13446;50.926;5.332;2023-01-20T11:39:58;3.40;99.90
25554;DHT22;13446;50.926;5.332;2023-01-20T11:44:54;3.50;99.90
25554;DHT22;13446;50.926;5.332;2023-01-20T11:52:49;3.70;99.90
25554;DHT22;13446;50.926;5.332;2023-01-20T11:55:16;3.70;99.90
25554;DHT22;13446;50.926;5.332;2023-01-20T11:57:43;3.60;99.90
25554;DHT22;13446;50.926;5.332;2023-01-20T12:00:42;3.50;99.90
25554;DHT22;13446;50.926;5.332;2023-01-20T12:05:39;3.70;99.90
25554;DHT22;13446;50.926;5.332;2023-01-20T12:08:14;3.70;99.90
25554;DHT22;13446;50.926;5.332;2023-01-20T12:10:40;3.40;99.90
25554;DHT22;13446;50.926;5.332;2023-01-20T12:13:16;3.40;99.90
25554;DHT22;13446;50.926;5.332;2023-01-20T12:15:44;3.40;99.90
25554;DHT22;13446;50.926;5.332;2023-01-20T12:20:58;3.50;99.90
25554;DHT22;13446;50.926;5.332;2023-01-20T12:23:38;3.50;99.90
25554;DHT22;13446;50.926;5.332;2023-01-20T12:26:11;3.40;99.90
25554;DHT22;13446;50.926;5.332;2023-01-20T12:28:39;3.30;99.90
25554;DHT22;13446;50.926;5.332;2023-01-20T12:31:06;3.30;99.90
25554;DHT22;13446;50.926;5.332;2023-01-20T12:33:39;3.40;99.90
25554;DHT22;13446;50.926;5.332;2023-01-20T12:38:40;3.60;99.90
25554;DHT22;13446;50.926;5.332;2023-01-20T12:41:10;3.50;99.90
25554;DHT22;13446;50.926;5.332;2023-01-20T12:43:50;3.20;99.90
25554;DHT22;13446;50.926;5.332;2023-01-20T12:46:39;3.10;99.90
25554;DHT22;13446;50.926;5.332;2023-01-20T12:49:08;2.90;99.90
25554;DHT22;13446;50.926;5.332;2023-01-20T12:59:34;3.30;99.90
25554;DHT22;13446;50.926;5.332;2023-01-20T13:14:38;3.30;99.90
25554;DHT22;13446;50.926;5.332;2023-01-20T13:17:14;3.50;99.90
25554;DHT22;13446;50.926;5.332;2023-01-20T13:19:40;3.60;99.90
25554;DHT22;13446;50.926;5.332;2023-01-20T13:22:08;3.70;99.90
25554;DHT22;13446;50.926;5.332;2023-01-20T13:24:35;3.80;99.90
25554;DHT22;13446;50.926;5.332;2023-01-20T13:27:01;3.90;99.90
25554;DHT22;13446;50.926;5.332;2023-01-20T13:31:58;3.90;99.90
25554;DHT22;13446;50.926;5.332;2023-01-20T13:34:29;3.90;99.90
25554;DHT22;13446;50.926;5.332;2023-01-20T13:45:08;4.20;99.90
25554;DHT22;13446;50.926;5.332;2023-01-20T13:50:28;4.10;99.90
25554;DHT22;13446;50.926;5.332;2023-01-20T13:53:02;3.90;99.90
25554;DHT22;13446;50.926;5.332;2023-01-20T14:00:55;3.50;99.90
25554;DHT22;13446;50.926;5.332;2023-01-20T14:03:22;3.30;99.90
25554;DHT22;13446;50.926;5.332;2023-01-20T14:05:49;3.20;99.90
25554;DHT22;13446;50.926;5.332;2023-01-20T14:08:19;3.20;99.90
25554;DHT22;13446;50.926;5.332;2023-01-20T14:10:45;3.20;99.90
25554;DHT22;13446;50.926;5.332;2023-01-20T14:13:17;3.00;99.90
25554;DHT22;13446;50.926;5.332;2023-01-20T14:15:42;2.80;99.90
25554;DHT22;13446;50.926;5.332;2023-01-20T14:18:13;3.00;99.90
25554;DHT22;13446;50.926;5.332;2023-01-20T14:20:41;3.30;99.90
25554;DHT22;13446;50.926;5.332;2023-01-20T14:23:23;3.30;99.90
25554;DHT22;13446;50.926;5.332;2023-01-20T14:25:56;3.40;99.90
25554;DHT22;13446;50.926;5.332;2023-01-20T14:28:22;3.60;99.90
25554;DHT22;13446;50.926;5.332;2023-01-20T14:30:47;3.70;99.90
25554;DHT22;13446;50.926;5.332;2023-01-20T14:33:13;3.60;99.90
25554;DHT22;13446;50.926;5.332;2023-01-20T14:35:40;3.50;99.90
25554;DHT22;13446;50.926;5.332;2023-01-20T14:38:15;3.60;99.90
25554;DHT22;13446;50.926;5.332;2023-01-20T14:40:41;3.70;99.90
25554;DHT22;13446;50.926;5.332;2023-01-20T14:43:14;3.70;99.90
25554;DHT22;13446;50.926;5.332;2023-01-20T14:45:41;3.50;99.90
25554;DHT22;13446;50.926;5.332;2023-01-20T14:48:08;3.30;99.90
25554;DHT22;13446;50.926;5.332;2023-01-20T14:50:34;3.40;99.90
25554;DHT22;13446;50.926;5.332;2023-01-20T14:53:02;3.00;99.90
25554;DHT22;13446;50.926;5.332;2023-01-20T14:55:37;3.10;99.90
25554;DHT22;13446;50.926;5.332;2023-01-20T14:58:12;2.80;99.90
25554;DHT22;13446;50.926;5.332;2023-01-20T15:00:46;2.80;99.90
25554;DHT22;13446;50.926;5.332;2023-01-20T15:03:22;2.80;99.90
25554;DHT22;13446;50.926;5.332;2023-01-20T15:13:35;3.00;99.90
25554;DHT22;13446;50.926;5.332;2023-01-20T15:16:13;3.20;99.90
25554;DHT22;13446;50.926;5.332;2023-01-20T15:18:40;3.20;99.90
25554;DHT22;13446;50.926;5.332;2023-01-20T15:21:25;3.40;99.90
25554;DHT22;13446;50.926;5.332;2023-01-20T15:23:51;3.40;99.90
25554;DHT22;13446;50.926;5.332;2023-01-20T15:26:29;3.40;99.90
25554;DHT22;13446;50.926;5.332;2023-01-20T15:28:55;3.60;99.90
25554;DHT22;13446;50.926;5.332;2023-01-20T15:31:21;3.50;99.90
25554;DHT22;13446;50.926;5.332;2023-01-20T15:33:47;3.50;99.90
25554;DHT22;13446;50.926;5.332;2023-01-20T15:38:43;3.30;99.90
25554;DHT22;13446;50.926;5.332;2023-01-20T15:41:10;3.20;99.90
25554;DHT22;13446;50.926;5.332;2023-01-20T15:43:36;3.20;99.90
25554;DHT22;13446;50.926;5.332;2023-01-20T15:46:07;3.30;99.90
25554;DHT22;13446;50.926;5.332;2023-01-20T15:48:34;3.30;99.90
25554;DHT22;13446;50.926;5.332;2023-01-20T15:50:59;3.30;99.90
25554;DHT22;13446;50.926;5.332;2023-01-20T15:53:25;3.10;99.90
25554;DHT22;13446;50.926;5.332;2023-01-20T15:55:50;2.90;99.90
25554;DHT22;13446;50.926;5.332;2023-01-20T15:58:20;3.10;99.90
25554;DHT22;13446;50.926;5.332;2023-01-20T16:00:46;3.10;99.90
25554;DHT22;13446;50.926;5.332;2023-01-20T16:03:12;2.90;99.90
25554;DHT22;13446;50.926;5.332;2023-01-20T16:05:37;2.90;99.90
25554;DHT22;13446;50.926;5.332;2023-01-20T16:08:08;3.00;99.90
25554;DHT22;13446;50.926;5.332;2023-01-20T16:10:34;3.00;99.90
25554;DHT22;13446;50.926;5.332;2023-01-20T16:13:00;3.00;99.90
25554;DHT22;13446;50.926;5.332;2023-01-20T16:15:25;3.20;99.90
25554;DHT22;13446;50.926;5.332;2023-01-20T16:17:51;3.20;99.90
25554;DHT22;13446;50.926;5.332;2023-01-20T16:20:19;3.20;99.90
25554;DHT22;13446;50.926;5.332;2023-01-20T16:22:45;3.20;99.90
25554;DHT22;13446;50.926;5.332;2023-01-20T16:25:10;3.20;99.90
25554;DHT22;13446;50.926;5.332;2023-01-20T16:27:37;3.30;99.90
25554;DHT22;13446;50.926;5.332;2023-01-20T16:30:02;3.30;99.90
25554;DHT22;13446;50.926;5.332;2023-01-20T16:32:28;3.30;99.90
25554;DHT22;13446;50.926;5.332;2023-01-20T16:34:55;3.40;99.90
25554;DHT22;13446;50.926;5.332;2023-01-20T16:37:20;3.50;99.90
25554;DHT22;13446;50.926;5.332;2023-01-20T16:39:46;3.40;99.90
25554;DHT22;13446;50.926;5.332;2023-01-20T16:42:12;3.30;99.90
25554;DHT22;13446;50.926;5.332;2023-01-20T16:44:38;3.40;99.90
25554;DHT22;13446;50.926;5.332;2023-01-20T16:47:03;3.40;99.90
25554;DHT22;13446;50.926;5.332;2023-01-20T16:49:32;3.40;99.90
25554;DHT22;13446;50.926;5.332;2023-01-20T16:51:58;3.40;99.90
25554;DHT22;13446;50.926;5.332;2023-01-20T16:54:23;3.40;99.90
25554;DHT22;13446;50.926;5.332;2023-01-20T16:56:49;3.30;99.90
25554;DHT22;13446;50.926;5.332;2023-01-20T16:59:15;3.20;99.90
25554;DHT22;13446;50.926;5.332;2023-01-20T17:01:41;3.30;99.90
25554;DHT22;13446;50.926;5.332;2023-01-20T17:04:07;3.30;99.90
25554;DHT22;13446;50.926;5.332;2023-01-20T17:06:33;3.40;99.90
25554;DHT22;13446;50.926;5.332;2023-01-20T17:09:00;3.40;99.90
25554;DHT22;13446;50.926;5.332;2023-01-20T17:11:30;3.30;99.90
25554;DHT22;13446;50.926;5.332;2023-01-20T17:13:57;3.30;99.90
25554;DHT22;13446;50.926;5.332;2023-01-20T17:16:23;3.30;99.90
25554;DHT22;13446;50.926;5.332;2023-01-20T17:18:53;3.30;99.90
25554;DHT22;13446;50.926;5.332;2023-01-20T17:21:20;3.30;99.90
25554;DHT22;13446;50.926;5.332;2023-01-20T17:23:52;3.30;99.90
25554;DHT22;13446;50.926;5.332;2023-01-20T17:26:18;3.30;99.90
25554;DHT22;13446;50.926;5.332;2023-01-20T17:28:44;3.20;99.90
25554;DHT22;13446;50.926;5.332;2023-01-20T17:31:10;3.10;99.90
25554;DHT22;13446;50.926;5.332;2023-01-20T17:33:36;3.10;99.90
25554;DHT22;13446;50.926;5.332;2023-01-20T17:36:02;2.90;99.90
25554;DHT22;13446;50.926;5.332;2023-01-20T17:38:28;2.90;99.90
25554;DHT22;13446;50.926;5.332;2023-01-20T17:41:04;3.00;99.90
25554;DHT22;13446;50.926;5.332;2023-01-20T17:43:36;3.20;99.90
25554;DHT22;13446;50.926;5.332;2023-01-20T17:46:19;3.20;99.90